Dobrodošli na spletni strani vremenske postaje Senovo. Vse informacije so informativnega značaja, saj vremenska postaja ni del državne mreže meteoroloških postaj. AKTUALNIH OBVESTIL NI.


Sneg/Led Od: 21-02-2018 00:00 Do: 23-02-2018 23:59 Opozorilo za: Sneg/Led Stopnja: Rumena info button
Veter Od: 21-02-2018 00:00 Do: 22-02-2018 23:59 Opozorilo za: Veter Stopnja: Rumena info button

Pogled proti Armezu več informacij Pogled proti Armezu


Lisca več informacij Lisca


Radar strel več informacij blitzortung!


opozorilo za sneg/led več informacij rain snow radar


Obiščite še:

Template documentation
and downloads

And another site



Weather Underground, zgodovina - Tekstovno

Dnevni povzetek za Oktober 6, 2017 Enote:  Angleško    Metrično   Obe
« Predhodni Dan
Naslednji Dan »
Dnevni Tedenski Mesečni Letni Po meri
  Višja: Nižja: Povprečje:
Temperatura: TemperatureC °F 5.3 °F 11 °F
Točka rosišča: DewpointC °F 4.5 °F 9 °F
Vlažnost: Humidity % 72 % 88 %
Hitrost vetra: WindSpeedKMH mph 0.0 mph 2.7 mph
Sunki vetra: WindSpeedGustKMH mph - -
Veter:- - South
Zračni tlak: PressurehPa in 1008.0 in -
Padavine: 20.1 in    
Historical Graphs
 
 
Tabelarni podarki za Oktober 6, 2017
Čas Temperatura Točka rosišča Zračni tlak Veter Hitrost vetra Sunki vetra Vlažnost Intenziteta padavin (urna)
TemperatureC °F DewpointC °F PressurehPa in Calm     Humidity % HourlyPrecipMM in
00:01 16.3 °F 11.4 °F 1008.0 in ESE 1.1 mph 5.0 mph 73 % 0.0 in
00:06 16.1 °F 11.4 °F 1008.0 in ESE 0.6 mph 4.0 mph 74 % 0.0 in
00:11 15.8 °F 11.4 °F 1008.0 in NE 0.5 mph 5.0 mph 75 % 0.0 in
00:16 15.6 °F 11.4 °F 1008.0 in North 0.5 mph 5.0 mph 76 % 0.0 in
00:21 15.4 °F 11.2 °F 1008.0 in NW 1.0 mph 4.0 mph 76 % 0.0 in
00:32 15.1 °F 11.3 °F 1009.0 in WSW 2.1 mph 6.9 mph 78 % 0.0 in
00:37 15.0 °F 11.6 °F 1009.0 in West 1.4 mph 5.8 mph 80 % 0.0 in
00:42 14.9 °F 11.7 °F 1009.0 in NW 0.2 mph 4.7 mph 81 % 0.0 in
00:47 14.9 °F 11.7 °F 1009.0 in NW 0.5 mph 4.7 mph 81 % 0.0 in
00:52 14.9 °F 11.8 °F 1009.0 in NW 0.5 mph 4.7 mph 82 % 0.0 in
00:57 14.9 °F 11.8 °F 1009.0 in NW 0.2 mph 3.2 mph 82 % 0.0 in
01:02 14.9 °F 12.1 °F 1009.0 in NW 0.5 mph 4.0 mph 83 % 0.0 in
01:07 14.8 °F 11.9 °F 1009.0 in West 0.6 mph 4.0 mph 83 % 0.0 in
01:12 14.8 °F 12.1 °F 1010.0 in WSW 0.3 mph 4.0 mph 84 % 0.0 in
01:17 14.8 °F 12.1 °F 1010.0 in Calm     84 % 0.0 in
01:22 14.8 °F 12.1 °F 1010.0 in Calm     84 % 0.0 in
01:32 14.8 °F 12.3 °F 1010.0 in Calm     85 % 0.0 in
01:37 14.8 °F 12.5 °F 1010.0 in NNE 0.3 mph 3.5 mph 86 % 0.0 in
01:47 14.9 °F 12.8 °F 1010.0 in North 0.3 mph 4.0 mph 87 % 0.0 in
01:52 14.9 °F 12.8 °F 1010.0 in Calm     87 % 0.0 in
01:57 14.9 °F 12.8 °F 1009.0 in WSW 1.1 mph 7.9 mph 87 % 0.0 in
02:02 15.3 °F 13.3 °F 1009.0 in WSW 6.0 mph 10.5 mph 88 % 0.0 in
02:07 15.6 °F 13.6 °F 1009.0 in WSW 8.4 mph 10.5 mph 88 % 0.0 in
02:12 15.6 °F 13.6 °F 1009.0 in WSW 5.8 mph 9.3 mph 88 % 0.0 in
02:17 15.6 °F 13.4 °F 1009.0 in SSW 2.9 mph 5.0 mph 87 % 0.0 in
02:22 15.6 °F 13.4 °F 1009.0 in SSW 2.3 mph 4.3 mph 87 % 0.0 in
02:27 15.5 °F 13.3 °F 1009.0 in SW 1.4 mph 4.0 mph 87 % 0.0 in
02:32 15.4 °F 13.2 °F 1009.0 in ESE 0.5 mph 2.6 mph 87 % 0.0 in
02:37 15.4 °F 13.2 °F 1009.0 in West 1.4 mph 5.5 mph 87 % 0.0 in
02:42 15.3 °F 13.2 °F 1009.0 in West 1.3 mph 5.5 mph 87 % 0.0 in
02:47 15.2 °F 13.1 °F 1009.0 in NNW 0.3 mph 3.2 mph 87 % 0.0 in
02:52 15.2 °F 13.2 °F 1009.0 in NNW 0.3 mph 1.8 mph 88 % 0.0 in
02:57 15.1 °F 13.1 °F 1009.0 in Calm     88 % 0.0 in
03:02 15.1 °F 13.1 °F 1009.0 in Calm     88 % 0.0 in
03:12 15.0 °F 13.2 °F 1009.0 in Calm     89 % 0.0 in
03:17 14.9 °F 13.1 °F 1009.0 in Calm     89 % 0.0 in
03:21 14.9 °F 13.3 °F 1009.0 in SW 1.1 mph 4.7 mph 90 % 0.0 in
03:26 14.9 °F 13.3 °F 1009.0 in West 2.3 mph 4.7 mph 90 % 0.0 in
03:31 14.9 °F 13.3 °F 1009.0 in WNW 1.6 mph 4.7 mph 90 % 0.0 in
03:36 14.9 °F 13.3 °F 1009.0 in WNW 0.5 mph 3.5 mph 90 % 0.0 in
03:41 14.8 °F 13.3 °F 1010.0 in WNW 0.2 mph 2.6 mph 91 % 0.5 in
03:46 14.8 °F 13.3 °F 1010.0 in NNW 0.2 mph 2.6 mph 91 % 0.5 in
03:51 14.8 °F 13.5 °F 1010.0 in SSE 0.2 mph 5.0 mph 92 % 1.0 in
03:56 14.8 °F 13.5 °F 1009.0 in SSE 1.1 mph 5.0 mph 92 % 1.0 in
04:01 14.8 °F 13.5 °F 1009.0 in SE 1.1 mph 5.0 mph 92 % 1.0 in
04:06 14.8 °F 13.5 °F 1009.0 in NNE 1.1 mph 6.1 mph 92 % 1.0 in
04:11 15.0 °F 13.7 °F 1009.0 in North 3.1 mph 8.7 mph 92 % 1.3 in
04:16 15.1 °F 13.7 °F 1009.0 in NNE 5.6 mph 15.8 mph 91 % 1.3 in
04:22 15.0 °F 13.4 °F 1009.0 in NE 6.9 mph 15.8 mph 90 % 1.3 in
04:26 14.9 °F 12.9 °F 1010.0 in ENE 6.9 mph 12.2 mph 88 % 1.3 in
04:31 14.8 °F 12.7 °F 1010.0 in NE 5.6 mph 12.2 mph 87 % 1.8 in
04:47 14.2 °F 11.7 °F 1010.0 in ENE 5.0 mph 10.5 mph 85 % 2.3 in
04:51 14.0 °F 11.5 °F 1010.0 in NE 6.9 mph 19.8 mph 85 % 2.0 in
04:56 13.9 °F 11.4 °F 1010.0 in NE 7.2 mph 19.8 mph 85 % 2.0 in
05:01 13.8 °F 11.3 °F 1010.0 in NNE 5.5 mph 14.0 mph 85 % 1.8 in
05:06 13.7 °F 11.2 °F 1010.0 in NE 6.8 mph 14.0 mph 85 % 2.0 in
05:12 13.6 °F 11.1 °F 1010.0 in NE 8.0 mph 20.9 mph 85 % 2.3 in
05:17 13.4 °F 10.9 °F 1010.0 in NE 6.9 mph 20.6 mph 85 % 2.8 in
05:22 13.3 °F 11.0 °F 1010.0 in ENE 5.6 mph 11.6 mph 86 % 3.3 in
05:24 13.2 °F 10.9 °F 1009.0 in ENE 5.5 mph 11.6 mph 86 % 3.3 in
05:27 13.2 °F 10.9 °F 1009.0 in ENE 5.0 mph 11.6 mph 86 % 3.3 in
05:29 13.1 °F 10.8 °F 1009.0 in ENE 5.3 mph 11.6 mph 86 % 3.3 in
05:34 13.0 °F 10.7 °F 1009.0 in NE 4.0 mph 10.1 mph 86 % 3.3 in
05:39 12.8 °F 10.7 °F 1009.0 in East 3.4 mph 6.9 mph 87 % 3.3 in
05:44 12.8 °F 10.7 °F 1009.0 in East 4.2 mph 10.5 mph 87 % 3.3 in
05:49 12.6 °F 10.7 °F 1009.0 in East 5.0 mph 10.5 mph 88 % 3.3 in
05:54 12.5 °F 10.6 °F 1010.0 in ESE 4.3 mph 9.3 mph 88 % 3.6 in
05:59 12.5 °F 10.6 °F 1010.0 in SE 4.5 mph 9.7 mph 88 % 3.8 in
06:04 12.4 °F 10.6 °F 1010.0 in SE 4.8 mph 9.7 mph 89 % 4.3 in
06:09 12.3 °F 10.6 °F 1010.0 in SE 5.1 mph 9.3 mph 89 % 4.3 in
06:19 12.2 °F 10.6 °F 1010.0 in East 2.9 mph 6.1 mph 90 % 4.3 in
06:24 12.1 °F 10.5 °F 1010.0 in East 1.9 mph 6.1 mph 90 % 4.3 in
06:29 12.0 °F 10.4 °F 1010.0 in South 2.1 mph 5.0 mph 90 % 4.3 in
06:34 12.0 °F 10.4 °F 1010.0 in SSW 3.9 mph 6.9 mph 90 % 4.6 in
06:39 12.0 °F 10.4 °F 1011.1 in SSW 4.0 mph 6.9 mph 90 % 4.6 in
06:44 11.9 °F 10.5 °F 1011.1 in South 2.7 mph 4.7 mph 91 % 4.6 in
06:49 11.8 °F 10.6 °F 1011.1 in West 1.3 mph 4.3 mph 92 % 4.6 in
06:54 11.8 °F 10.6 °F 1011.1 in Calm     92 % 5.1 in
06:59 11.8 °F 10.6 °F 1011.1 in Calm   4.0 mph 92 % 5.3 in
07:04 11.7 °F 10.4 °F 1011.1 in SSW 2.1 mph 9.3 mph 92 % 5.6 in
07:09 11.7 °F 10.4 °F 1012.1 in South 4.8 mph 9.3 mph 92 % 5.3 in
07:14 11.6 °F 10.3 °F 1012.1 in SSE 5.8 mph 10.1 mph 92 % 5.1 in
07:19 11.6 °F 10.5 °F 1012.1 in SSE 6.3 mph 12.2 mph 93 % 5.1 in
07:24 11.5 °F 10.4 °F 1011.1 in SSE 5.6 mph 12.2 mph 93 % 5.1 in
07:25 11.5 °F 10.4 °F 1011.1 in SE 5.6 mph 12.2 mph 93 % 5.1 in
07:30 11.5 °F 10.4 °F 1011.1 in SE 6.3 mph 13.7 mph 93 % 5.1 in
07:35 11.4 °F 10.3 °F 1011.1 in SE 6.3 mph 13.7 mph 93 % 4.8 in
07:45 11.4 °F 10.3 °F 1012.1 in ESE 6.6 mph 12.2 mph 93 % 4.6 in
07:50 11.3 °F 10.2 °F 1012.1 in ESE 5.6 mph 10.5 mph 93 % 4.8 in
07:55 11.3 °F 10.2 °F 1011.1 in ESE 2.9 mph 7.9 mph 93 % 4.6 in
08:00 11.2 °F 10.1 °F 1011.1 in SE 2.1 mph 10.5 mph 93 % 4.1 in
08:05 11.2 °F 10.1 °F 1011.1 in SE 4.3 mph 10.5 mph 93 % 3.6 in
08:10 11.1 °F 10.0 °F 1012.1 in ESE 4.5 mph 9.7 mph 93 % 3.3 in
08:15 11.1 °F 10.0 °F 1012.1 in ESE 3.2 mph 6.4 mph 93 % 3.0 in
08:20 11.0 °F 9.9 °F 1012.1 in South 3.9 mph 8.7 mph 93 % 2.5 in
08:25 11.0 °F 9.9 °F 1012.1 in SSE 5.5 mph 10.8 mph 93 % 2.8 in
08:30 10.9 °F 9.9 °F 1012.1 in SSE 4.7 mph 10.8 mph 94 % 2.5 in
08:40 10.9 °F 9.9 °F 1012.1 in SSE 5.6 mph 9.7 mph 94 % 2.8 in
08:50 10.8 °F 9.9 °F 1012.1 in ENE 2.4 mph 5.8 mph 94 % 2.5 in
08:55 10.8 °F 9.9 °F 1011.1 in SSE 5.3 mph 15.8 mph 94 % 2.5 in
09:00 10.7 °F 9.8 °F 1011.1 in SSE 5.8 mph 15.8 mph 94 % 2.5 in
09:05 10.7 °F 9.8 °F 1011.1 in ESE 3.4 mph 9.3 mph 94 % 2.3 in
09:10 10.7 °F 9.8 °F 1012.1 in SE 4.3 mph 9.3 mph 94 % 2.3 in
09:15 10.7 °F 9.8 °F 1012.1 in SE 3.2 mph 6.9 mph 94 % 2.3 in
09:20 10.7 °F 9.8 °F 1012.1 in SE 3.2 mph 13.7 mph 94 % 2.3 in
09:25 10.7 °F 9.8 °F 1013.1 in SE 5.3 mph 13.7 mph 94 % 1.8 in
09:30 10.7 °F 9.8 °F 1013.1 in ESE 5.8 mph 13.7 mph 94 % 1.5 in
09:35 10.7 °F 9.8 °F 1013.1 in ESE 5.0 mph 9.0 mph 94 % 1.0 in
09:40 10.7 °F 9.8 °F 1014.1 in SE 4.0 mph 8.7 mph 94 % 0.8 in
09:45 10.7 °F 9.8 °F 1014.1 in ESE 2.6 mph 8.7 mph 94 % 0.5 in
09:50 10.7 °F 9.8 °F 1014.1 in ENE 2.7 mph 6.9 mph 94 % 0.3 in
09:55 10.7 °F 9.8 °F 1014.1 in ENE 2.9 mph 6.9 mph 94 % 0.0 in
10:00 10.7 °F 9.8 °F 1014.1 in East 2.3 mph 5.8 mph 94 % 0.0 in
10:05 10.7 °F 9.8 °F 1014.1 in East 1.3 mph 5.8 mph 94 % 0.0 in
10:10 10.8 °F 9.9 °F 1014.1 in Calm   2.1 mph 94 % 0.0 in
10:15 10.8 °F 9.9 °F 1014.1 in Calm     94 % 0.0 in
10:20 10.9 °F 9.9 °F 1014.1 in Calm     94 % 0.0 in
10:25 10.9 °F 9.9 °F 1014.1 in Calm   2.1 mph 94 % 0.0 in
10:26 10.9 °F 9.9 °F 1014.1 in Calm   2.1 mph 94 % 0.0 in
10:31 10.9 °F 9.9 °F 1014.1 in East 0.3 mph 4.3 mph 94 % 0.0 in
10:36 10.9 °F 9.9 °F 1014.1 in ENE 2.1 mph 6.4 mph 94 % 0.0 in
10:41 10.9 °F 9.9 °F 1014.1 in East 2.6 mph 6.4 mph 94 % 0.0 in
10:51 10.9 °F 9.9 °F 1014.1 in ENE 3.9 mph 10.1 mph 94 % 0.0 in
10:56 11.0 °F 9.9 °F 1014.1 in East 4.3 mph 10.1 mph 93 % 0.0 in
11:01 11.0 °F 9.9 °F 1014.1 in East 3.7 mph 9.7 mph 93 % 0.0 in
11:06 11.0 °F 9.9 °F 1014.1 in East 2.4 mph 7.9 mph 93 % 0.0 in
11:11 11.0 °F 9.9 °F 1014.1 in East 3.5 mph 13.0 mph 93 % 0.0 in
11:16 11.1 °F 10.0 °F 1014.1 in ENE 5.0 mph 13.0 mph 93 % 0.0 in
11:21 11.3 °F 10.1 °F 1014.1 in East 4.3 mph 9.3 mph 92 % 0.0 in
11:26 11.3 °F 10.1 °F 1014.1 in East 4.0 mph 7.6 mph 92 % 0.0 in
11:36 11.3 °F 10.1 °F 1014.1 in East 3.4 mph 7.9 mph 92 % 0.0 in
11:41 11.3 °F 9.9 °F 1014.1 in ENE 4.3 mph 11.9 mph 91 % 0.0 in
11:51 11.6 °F 10.2 °F 1014.1 in ESE 5.3 mph 7.9 mph 91 % 0.0 in
11:56 11.6 °F 10.2 °F 1014.1 in ESE 4.2 mph 7.6 mph 91 % 0.0 in
12:01 11.7 °F 10.3 °F 1014.1 in East 3.1 mph 14.0 mph 91 % 0.0 in
12:06 11.8 °F 10.2 °F 1014.1 in East 3.1 mph 14.0 mph 90 % 0.0 in
12:11 11.9 °F 10.3 °F 1014.1 in ESE 3.4 mph 6.4 mph 90 % 0.0 in
12:16 11.8 °F 10.2 °F 1014.1 in East 4.7 mph 13.0 mph 90 % 0.0 in
12:21 11.8 °F 10.2 °F 1014.1 in ENE 5.3 mph 13.0 mph 90 % 0.0 in
12:26 11.9 °F 10.3 °F 1014.1 in East 4.0 mph 6.9 mph 90 % 0.0 in
12:31 12.1 °F 10.3 °F 1014.1 in East 3.9 mph 8.7 mph 89 % 0.0 in
12:36 12.3 °F 10.6 °F 1014.1 in ESE 4.8 mph 12.2 mph 89 % 0.0 in
12:41 12.4 °F 10.6 °F 1014.1 in SE 6.3 mph 12.2 mph 89 % 0.0 in
12:46 12.4 °F 10.4 °F 1014.1 in ESE 6.3 mph 12.2 mph 88 % 0.0 in
12:51 12.5 °F 10.4 °F 1014.1 in ESE 5.3 mph 10.5 mph 87 % 0.0 in
12:56 12.5 °F 10.4 °F 1014.1 in ESE 5.1 mph 11.6 mph 87 % 0.0 in
13:01 12.4 °F 10.1 °F 1014.1 in ESE 4.5 mph 11.6 mph 86 % 0.0 in
13:06 12.4 °F 10.1 °F 1014.1 in SE 5.3 mph 10.5 mph 86 % 0.0 in
13:11 12.4 °F 10.1 °F 1014.1 in SSE 6.4 mph 10.5 mph 86 % 0.0 in
13:16 12.4 °F 9.9 °F 1014.1 in SE 6.4 mph 9.7 mph 85 % 0.0 in
13:21 12.4 °F 9.9 °F 1014.1 in ESE 5.5 mph 9.7 mph 85 % 0.0 in
13:26 12.5 °F 10.1 °F 1013.1 in SE 4.2 mph 7.9 mph 85 % 0.0 in
13:31 12.7 °F 10.2 °F 1013.1 in SE 4.3 mph 7.9 mph 85 % 0.0 in
13:36 12.9 °F 10.3 °F 1013.1 in ESE 3.9 mph 6.9 mph 84 % 0.0 in
13:41 13.1 °F 10.4 °F 1014.1 in SE 4.8 mph 10.5 mph 84 % 0.0 in
13:46 13.1 °F 10.4 °F 1014.1 in SE 5.6 mph 10.5 mph 84 % 0.0 in
13:51 12.9 °F 10.1 °F 1014.1 in SE 6.8 mph 10.5 mph 83 % 0.0 in
13:56 12.9 °F 9.9 °F 1014.1 in SE 7.4 mph 10.5 mph 82 % 0.0 in
14:01 12.9 °F 9.7 °F 1014.1 in ESE 6.4 mph 13.0 mph 81 % 0.0 in
14:11 13.1 °F 9.6 °F 1013.1 in SSE 4.3 mph 11.9 mph 79 % 0.0 in
14:16 13.0 °F 9.4 °F 1013.1 in SSE 4.0 mph 10.1 mph 79 % 0.0 in
14:21 13.0 °F 9.3 °F 1013.1 in SE 6.4 mph 17.2 mph 78 % 0.0 in
14:27 12.7 °F 8.8 °F 1013.1 in SE 8.2 mph 17.2 mph 77 % 0.0 in
14:32 12.6 °F 8.7 °F 1013.1 in SE 8.5 mph 13.7 mph 77 % 0.0 in
14:37 12.4 °F 8.3 °F 1013.1 in SSE 7.9 mph 13.7 mph 76 % 0.0 in
14:42 12.4 °F 8.1 °F 1014.1 in SE 6.9 mph 13.0 mph 75 % 0.0 in
14:47 12.3 °F 8.0 °F 1014.1 in SE 4.7 mph 7.9 mph 75 % 0.0 in
14:52 12.4 °F 8.1 °F 1014.1 in SE 3.5 mph 6.1 mph 75 % 0.0 in
14:57 12.3 °F 8.0 °F 1013.1 in SSE 4.5 mph 11.6 mph 75 % 0.0 in
15:02 12.1 °F 7.6 °F 1013.1 in SE 6.1 mph 12.6 mph 74 % 0.0 in
15:07 11.9 °F 7.4 °F 1013.1 in SE 6.6 mph 12.6 mph 74 % 0.0 in
15:12 11.7 °F 7.0 °F 1014.1 in East 5.0 mph 12.2 mph 73 % 0.0 in
15:17 11.7 °F 7.0 °F 1014.1 in East 4.5 mph 9.3 mph 73 % 0.0 in
15:22 11.6 °F 7.1 °F 1014.1 in East 4.0 mph 9.3 mph 74 % 0.0 in
15:27 11.6 °F 7.1 °F 1013.1 in ENE 3.5 mph 9.3 mph 74 % 0.0 in
15:37 11.7 °F 7.2 °F 1013.1 in ENE 3.5 mph 6.9 mph 74 % 0.0 in
15:42 11.8 °F 7.3 °F 1013.1 in ENE 3.1 mph 9.7 mph 74 % 0.0 in
15:47 11.8 °F 7.3 °F 1013.1 in ENE 4.2 mph 11.6 mph 74 % 0.0 in
15:52 11.9 °F 7.4 °F 1013.1 in NE 3.9 mph 11.6 mph 74 % 0.0 in
15:57 12.1 °F 7.4 °F 1013.1 in ESE 1.6 mph 5.0 mph 73 % 0.0 in
16:07 12.8 °F 8.3 °F 1013.1 in South 3.5 mph 9.7 mph 74 % 0.0 in
16:12 12.8 °F 8.3 °F 1013.1 in SSE 5.3 mph 11.6 mph 74 % 0.0 in
16:17 12.7 °F 8.0 °F 1013.1 in SE 6.1 mph 11.6 mph 73 % 0.0 in
16:22 12.5 °F 7.8 °F 1013.1 in SSE 6.3 mph 10.5 mph 73 % 0.0 in
16:27 12.4 °F 7.5 °F 1014.1 in SSE 5.6 mph 10.5 mph 72 % 0.0 in
16:32 12.2 °F 7.3 °F 1014.1 in SSE 4.2 mph 10.1 mph 72 % 0.0 in
16:37 12.0 °F 7.1 °F 1014.1 in ENE 3.9 mph 9.7 mph 72 % 0.0 in
16:42 11.8 °F 6.9 °F 1015.1 in ENE 5.6 mph 10.5 mph 72 % 0.0 in
16:47 11.7 °F 7.0 °F 1015.1 in East 6.1 mph 11.6 mph 73 % 0.5 in
16:52 11.5 °F 6.8 °F 1015.1 in ESE 5.0 mph 11.6 mph 73 % 1.0 in
16:57 11.3 °F 6.8 °F 1016.1 in SE 2.1 mph 6.4 mph 74 % 1.3 in
17:02 11.2 °F 6.9 °F 1016.1 in West 0.2 mph 4.7 mph 75 % 1.3 in
17:07 11.0 °F 6.9 °F 1016.1 in West 0.5 mph 4.7 mph 76 % 1.3 in
17:12 11.0 °F 7.3 °F 1015.1 in West 0.6 mph 3.5 mph 78 % 1.3 in
17:22 10.8 °F 7.5 °F 1015.1 in Calm     80 % 1.3 in
17:27 10.7 °F 7.6 °F 1015.1 in Calm     81 % 1.3 in
17:32 10.6 °F 7.7 °F 1015.1 in Calm     82 % 1.3 in
17:37 10.5 °F 7.6 °F 1015.1 in Calm     82 % 1.3 in
17:42 10.3 °F 7.6 °F 1015.1 in Calm     83 % 1.3 in
17:47 10.2 °F 7.6 °F 1015.1 in Calm   4.3 mph 84 % 0.8 in
17:52 10.0 °F 7.4 °F 1015.1 in NNW 0.8 mph 4.3 mph 84 % 0.3 in
17:57 9.9 °F 7.5 °F 1015.1 in NNW 0.8 mph 4.0 mph 85 % 0.0 in
18:02 9.7 °F 7.3 °F 1015.1 in Calm     85 % 0.0 in
18:07 9.6 °F 7.2 °F 1015.1 in Calm     85 % 0.0 in
18:12 9.4 °F 7.2 °F 1015.1 in NNW 1.1 mph 5.5 mph 86 % 0.0 in
18:17 9.3 °F 7.1 °F 1015.1 in NNW 1.4 mph 5.5 mph 86 % 0.0 in
18:22 9.1 °F 6.9 °F 1015.1 in NNW 0.6 mph 4.7 mph 86 % 0.0 in
18:27 9.0 °F 6.8 °F 1015.1 in NNW 1.3 mph 4.7 mph 86 % 0.0 in
18:32 8.8 °F 6.8 °F 1015.1 in North 1.3 mph 4.7 mph 87 % 0.0 in
18:37 8.7 °F 6.7 °F 1015.1 in NNE 0.3 mph 4.7 mph 87 % 0.0 in
18:42 8.6 °F 6.6 °F 1015.1 in Calm     87 % 0.0 in
18:47 8.5 °F 6.6 °F 1015.1 in NNE 0.3 mph 2.1 mph 88 % 0.0 in
18:52 8.4 °F 6.5 °F 1015.1 in NNE 0.3 mph 2.1 mph 88 % 0.0 in
18:58 8.2 °F 6.3 °F 1016.1 in NNW 0.5 mph 4.3 mph 88 % 0.0 in
19:03 8.1 °F 6.4 °F 1016.1 in NNW 0.8 mph 4.3 mph 89 % 0.0 in
19:08 8.0 °F 6.3 °F 1016.1 in NW 1.0 mph 3.2 mph 89 % 0.0 in
19:13 7.9 °F 6.3 °F 1016.1 in NW 0.6 mph 3.2 mph 90 % 0.0 in
19:18 7.8 °F 6.3 °F 1016.1 in Calm     90 % 0.0 in
19:23 7.7 °F 6.2 °F 1016.1 in Calm     90 % 0.0 in
19:28 7.7 °F 6.2 °F 1016.1 in NW 0.5 mph 4.0 mph 90 % 0.0 in
19:33 7.6 °F 6.1 °F 1016.1 in NW 0.5 mph 4.0 mph 90 % 0.0 in
19:38 7.4 °F 6.0 °F 1016.1 in Calm     91 % 0.0 in
19:43 7.3 °F 5.9 °F 1016.1 in Calm     91 % 0.0 in
19:48 7.2 °F 5.8 °F 1016.1 in Calm     91 % 0.0 in
19:53 7.2 °F 5.8 °F 1016.1 in NW 0.2 mph 4.0 mph 91 % 0.0 in
19:58 7.1 °F 5.7 °F 1016.8 in NW 0.2 mph 4.0 mph 91 % 0.0 in
20:03 7.0 °F 5.6 °F 1016.8 in Calm     91 % 0.0 in
20:08 6.9 °F 5.7 °F 1016.1 in Calm     92 % 0.0 in
20:13 6.8 °F 5.6 °F 1016.1 in Calm     92 % 0.0 in
20:18 6.7 °F 5.5 °F 1016.1 in Calm     92 % 0.0 in
20:23 6.7 °F 5.5 °F 1016.1 in Calm     92 % 0.0 in
20:29 6.5 °F 5.4 °F 1016.1 in Calm     93 % 0.0 in
20:34 6.5 °F 5.4 °F 1016.1 in Calm   2.1 mph 93 % 0.0 in
20:39 6.4 °F 5.3 °F 1016.1 in NW 0.3 mph 2.6 mph 93 % 0.0 in
20:44 6.4 °F 5.3 °F 1016.1 in NW 0.6 mph 2.6 mph 93 % 0.0 in
20:49 6.4 °F 5.3 °F 1016.1 in NW 0.3 mph 2.1 mph 93 % 0.0 in
20:54 6.1 °F 5.1 °F 1016.1 in Calm     93 % 0.0 in
20:59 6.0 °F 4.9 °F 1016.1 in Calm     93 % 0.0 in
21:04 6.0 °F 4.9 °F 1016.1 in Calm     93 % 0.0 in
21:09 5.9 °F 5.0 °F 1015.1 in Calm   3.2 mph 94 % 0.0 in
21:14 5.8 °F 4.9 °F 1015.1 in SW 1.1 mph 4.3 mph 94 % 0.0 in
21:19 5.8 °F 4.9 °F 1015.1 in WSW 1.1 mph 4.3 mph 94 % 0.0 in
21:24 5.8 °F 4.9 °F 1015.1 in NNW 0.3 mph 2.6 mph 94 % 0.0 in
21:29 5.7 °F 4.8 °F 1015.1 in NNW 0.5 mph 4.0 mph 94 % 0.0 in
21:34 5.7 °F 4.8 °F 1015.1 in NNW 1.0 mph 4.0 mph 94 % 0.0 in
21:39 5.6 °F 4.7 °F 1015.1 in NNW 0.6 mph 4.0 mph 94 % 0.0 in
21:44 5.6 °F 4.7 °F 1015.1 in Calm     94 % 0.0 in
21:54 5.5 °F 4.6 °F 1016.1 in NNW 0.2 mph 2.6 mph 94 % 0.0 in
21:59 5.5 °F 4.6 °F 1016.1 in NNW 0.3 mph 2.6 mph 94 % 0.0 in
22:04 5.4 °F 4.5 °F 1016.1 in NNW 0.3 mph 1.8 mph 94 % 0.0 in
22:09 5.4 °F 4.7 °F 1016.8 in Calm     95 % 0.0 in
22:14 5.4 °F 4.7 °F 1016.8 in SSW 0.6 mph 5.0 mph 95 % 0.0 in
22:19 5.3 °F 4.6 °F 1016.8 in WSW 1.6 mph 5.0 mph 95 % 0.0 in
22:24 5.4 °F 4.7 °F 1016.8 in WNW 1.1 mph 4.7 mph 95 % 0.0 in
22:29 5.4 °F 4.7 °F 1016.8 in WNW 1.0 mph 3.5 mph 95 % 0.0 in
22:34 5.4 °F 4.7 °F 1016.8 in WNW 0.8 mph 3.5 mph 95 % 0.0 in
22:39 5.5 °F 4.8 °F 1016.8 in East 0.2 mph 2.6 mph 95 % 0.0 in
22:44 5.6 °F 4.9 °F 1016.8 in East 0.2 mph 2.6 mph 95 % 0.0 in
22:49 5.6 °F 4.9 °F 1016.8 in Calm   3.2 mph 95 % 0.0 in
22:54 5.6 °F 5.0 °F 1016.8 in WNW 0.3 mph 3.2 mph 96 % 0.0 in
22:59 5.7 °F 5.1 °F 1016.8 in WNW 0.6 mph 3.2 mph 96 % 0.0 in
23:04 5.7 °F 5.1 °F 1016.8 in WNW 0.6 mph 3.2 mph 96 % 0.0 in
23:09 5.7 °F 5.1 °F 1016.8 in WNW 0.2 mph 2.6 mph 96 % 0.0 in
23:14 5.7 °F 5.1 °F 1016.8 in Calm     96 % 0.0 in
23:19 5.7 °F 5.1 °F 1016.8 in Calm     96 % 0.0 in
23:24 5.7 °F 5.1 °F 1016.8 in Calm     96 % 0.0 in
23:29 5.7 °F 5.1 °F 1016.8 in Calm     96 % 0.0 in
23:34 5.7 °F 5.1 °F 1016.8 in Calm     96 % 0.0 in
23:39 5.7 °F 5.1 °F 1016.8 in Calm   4.0 mph 96 % 0.0 in
23:44 5.7 °F 5.1 °F 1016.8 in NNW 1.8 mph 5.0 mph 96 % 0.0 in
23:49 5.7 °F 5.1 °F 1016.8 in NNW 2.6 mph 5.0 mph 96 % 0.0 in
23:54 5.7 °F 5.1 °F 1016.8 in NNW 2.1 mph 4.7 mph 96 % 0.0 in
23:59 5.7 °F 5.1 °F 1016.8 in NNW 2.7 mph 5.8 mph 96 % 0.0 in
Vremenska postaja Senovo
Podatki zbrani iz Weather Underground - 2.75 mb

Script developed by  Jim McMurry - jmcmurry@mwt.net Adapted for the template by  Wim van der Kuil - Leuven-Template.eu

Vremenski podatki so objavljeni na:

European Weather Network

WeatherCloud

Weather Underground

AWEKAS

HAMweather, WeatherForYou, PWS Weather

MapView

Geostik

Slovenia weather network

Oprema, ki se uporablja:

Vremenski program
Cumulus

Vremenski server
Asus

Cumulus

Asus